sensor_id;sensor_type;location;lat;lon;timestamp;P1;durP1;ratioP1;P2;durP2;ratioP2
69981;SDS011;57319;56.274;43.980;2023-12-04T00:00:21;4.22;;;3.33;;
69981;SDS011;57319;56.274;43.980;2023-12-04T00:02:47;4.55;;;4.15;;
69981;SDS011;57319;56.274;43.980;2023-12-04T00:05:12;8.38;;;4.35;;
69981;SDS011;57319;56.274;43.980;2023-12-04T00:07:38;3.67;;;2.78;;
69981;SDS011;57319;56.274;43.980;2023-12-04T00:10:04;2.65;;;2.42;;
69981;SDS011;57319;56.274;43.980;2023-12-04T00:12:30;3.28;;;1.83;;
69981;SDS011;57319;56.274;43.980;2023-12-04T00:14:55;3.55;;;2.33;;
69981;SDS011;57319;56.274;43.980;2023-12-04T00:17:21;2.78;;;2.58;;
69981;SDS011;57319;56.274;43.980;2023-12-04T00:19:47;4.28;;;3.22;;
69981;SDS011;57319;56.274;43.980;2023-12-04T00:22:13;3.40;;;2.55;;
69981;SDS011;57319;56.274;43.980;2023-12-04T00:24:38;3.88;;;3.55;;
69981;SDS011;57319;56.274;43.980;2023-12-04T00:27:04;4.63;;;2.83;;
69981;SDS011;57319;56.274;43.980;2023-12-04T00:29:30;3.33;;;3.08;;
69981;SDS011;57319;56.274;43.980;2023-12-04T00:31:55;4.38;;;4.07;;
69981;SDS011;57319;56.274;43.980;2023-12-04T00:34:22;4.70;;;4.20;;
69981;SDS011;57319;56.274;43.980;2023-12-04T00:36:48;4.10;;;3.70;;
69981;SDS011;57319;56.274;43.980;2023-12-04T00:39:13;2.95;;;2.67;;
69981;SDS011;57319;56.274;43.980;2023-12-04T00:41:39;7.25;;;4.45;;
69981;SDS011;57319;56.274;43.980;2023-12-04T00:44:05;4.50;;;3.78;;
69981;SDS011;57319;56.274;43.980;2023-12-04T00:46:30;4.57;;;3.92;;
69981;SDS011;57319;56.274;43.980;2023-12-04T00:48:56;5.20;;;4.20;;
69981;SDS011;57319;56.274;43.980;2023-12-04T00:51:22;4.75;;;4.22;;
69981;SDS011;57319;56.274;43.980;2023-12-04T00:53:47;6.18;;;4.45;;
69981;SDS011;57319;56.274;43.980;2023-12-04T00:56:13;4.82;;;4.43;;
69981;SDS011;57319;56.274;43.980;2023-12-04T00:58:39;3.88;;;3.58;;
69981;SDS011;57319;56.274;43.980;2023-12-04T01:01:04;3.97;;;3.40;;
69981;SDS011;57319;56.274;43.980;2023-12-04T01:03:30;4.72;;;3.85;;
69981;SDS011;57319;56.274;43.980;2023-12-04T01:05:58;3.55;;;3.28;;
69981;SDS011;57319;56.274;43.980;2023-12-04T01:08:24;5.20;;;3.25;;
69981;SDS011;57319;56.274;43.980;2023-12-04T01:10:50;3.80;;;3.47;;
69981;SDS011;57319;56.274;43.980;2023-12-04T01:13:16;4.90;;;4.47;;
69981;SDS011;57319;56.274;43.980;2023-12-04T01:15:41;4.78;;;2.70;;
69981;SDS011;57319;56.274;43.980;2023-12-04T01:18:08;4.82;;;4.40;;
69981;SDS011;57319;56.274;43.980;2023-12-04T01:20:36;8.75;;;4.75;;
69981;SDS011;57319;56.274;43.980;2023-12-04T01:23:02;2.78;;;2.67;;
69981;SDS011;57319;56.274;43.980;2023-12-04T01:25:28;5.57;;;4.28;;
69981;SDS011;57319;56.274;43.980;2023-12-04T01:27:54;4.53;;;2.53;;
69981;SDS011;57319;56.274;43.980;2023-12-04T01:30:19;4.18;;;3.85;;
69981;SDS011;57319;56.274;43.980;2023-12-04T01:32:45;3.20;;;2.53;;
69981;SDS011;57319;56.274;43.980;2023-12-04T01:35:10;3.72;;;3.40;;
69981;SDS011;57319;56.274;43.980;2023-12-04T01:37:37;4.10;;;3.75;;
69981;SDS011;57319;56.274;43.980;2023-12-04T01:40:04;7.35;;;4.50;;
69981;SDS011;57319;56.274;43.980;2023-12-04T01:42:32;3.28;;;2.80;;
69981;SDS011;57319;56.274;43.980;2023-12-04T01:44:57;4.03;;;3.72;;
69981;SDS011;57319;56.274;43.980;2023-12-04T01:47:23;3.70;;;3.25;;
69981;SDS011;57319;56.274;43.980;2023-12-04T01:49:49;5.28;;;4.25;;
69981;SDS011;57319;56.274;43.980;2023-12-04T01:52:15;4.15;;;3.65;;
69981;SDS011;57319;56.274;43.980;2023-12-04T01:54:48;2.95;;;2.75;;
69981;SDS011;57319;56.274;43.980;2023-12-04T01:57:13;4.70;;;4.05;;
69981;SDS011;57319;56.274;43.980;2023-12-04T01:59:39;3.83;;;3.47;;
69981;SDS011;57319;56.274;43.980;2023-12-04T02:02:05;4.82;;;4.38;;
69981;SDS011;57319;56.274;43.980;2023-12-04T02:04:30;4.20;;;3.83;;
69981;SDS011;57319;56.274;43.980;2023-12-04T02:06:57;5.22;;;4.32;;
69981;SDS011;57319;56.274;43.980;2023-12-04T02:09:23;3.60;;;3.35;;
69981;SDS011;57319;56.274;43.980;2023-12-04T02:11:48;4.22;;;3.88;;
69981;SDS011;57319;56.274;43.980;2023-12-04T02:14:14;2.97;;;2.78;;
69981;SDS011;57319;56.274;43.980;2023-12-04T02:16:41;6.10;;;4.20;;
69981;SDS011;57319;56.274;43.980;2023-12-04T02:19:11;5.20;;;4.68;;
69981;SDS011;57319;56.274;43.980;2023-12-04T02:21:42;6.03;;;5.15;;
69981;SDS011;57319;56.274;43.980;2023-12-04T02:24:07;5.35;;;4.60;;
69981;SDS011;57319;56.274;43.980;2023-12-04T02:26:34;4.40;;;4.10;;
69981;SDS011;57319;56.274;43.980;2023-12-04T02:29:14;5.43;;;4.00;;
69981;SDS011;57319;56.274;43.980;2023-12-04T02:31:44;3.45;;;3.13;;
69981;SDS011;57319;56.274;43.980;2023-12-04T02:34:12;7.57;;;4.22;;
69981;SDS011;57319;56.274;43.980;2023-12-04T02:36:41;4.68;;;3.92;;
69981;SDS011;57319;56.274;43.980;2023-12-04T02:39:07;5.03;;;4.53;;
69981;SDS011;57319;56.274;43.980;2023-12-04T02:41:33;3.75;;;3.47;;
69981;SDS011;57319;56.274;43.980;2023-12-04T02:43:59;4.22;;;3.85;;
69981;SDS011;57319;56.274;43.980;2023-12-04T02:46:24;4.47;;;3.85;;
69981;SDS011;57319;56.274;43.980;2023-12-04T02:48:50;4.78;;;4.00;;
69981;SDS011;57319;56.274;43.980;2023-12-04T02:51:16;9.25;;;4.88;;
69981;SDS011;57319;56.274;43.980;2023-12-04T02:53:41;3.90;;;3.50;;
69981;SDS011;57319;56.274;43.980;2023-12-04T02:56:07;5.00;;;4.50;;
69981;SDS011;57319;56.274;43.980;2023-12-04T02:58:33;4.60;;;4.22;;
69981;SDS011;57319;56.274;43.980;2023-12-04T03:00:59;5.97;;;4.65;;
69981;SDS011;57319;56.274;43.980;2023-12-04T03:03:25;4.28;;;3.88;;
69981;SDS011;57319;56.274;43.980;2023-12-04T03:05:51;4.50;;;4.18;;
69981;SDS011;57319;56.274;43.980;2023-12-04T03:08:16;4.05;;;3.75;;
69981;SDS011;57319;56.274;43.980;2023-12-04T03:10:42;4.00;;;3.55;;
69981;SDS011;57319;56.274;43.980;2023-12-04T03:13:08;4.25;;;3.25;;
69981;SDS011;57319;56.274;43.980;2023-12-04T03:15:33;3.88;;;3.58;;
69981;SDS011;57319;56.274;43.980;2023-12-04T03:17:59;4.95;;;4.50;;
69981;SDS011;57319;56.274;43.980;2023-12-04T03:20:26;4.47;;;3.88;;
69981;SDS011;57319;56.274;43.980;2023-12-04T03:22:51;4.50;;;3.83;;
69981;SDS011;57319;56.274;43.980;2023-12-04T03:25:17;4.95;;;4.55;;
69981;SDS011;57319;56.274;43.980;2023-12-04T03:27:44;4.88;;;4.25;;
69981;SDS011;57319;56.274;43.980;2023-12-04T03:30:10;6.93;;;4.75;;
69981;SDS011;57319;56.274;43.980;2023-12-04T03:32:36;6.93;;;5.75;;
69981;SDS011;57319;56.274;43.980;2023-12-04T03:35:01;6.07;;;5.47;;
69981;SDS011;57319;56.274;43.980;2023-12-04T03:37:30;7.30;;;4.63;;
69981;SDS011;57319;56.274;43.980;2023-12-04T03:39:55;5.90;;;4.53;;
69981;SDS011;57319;56.274;43.980;2023-12-04T03:42:21;4.13;;;3.83;;
69981;SDS011;57319;56.274;43.980;2023-12-04T03:44:46;3.83;;;3.40;;
69981;SDS011;57319;56.274;43.980;2023-12-04T03:47:12;3.50;;;3.20;;
69981;SDS011;57319;56.274;43.980;2023-12-04T03:49:38;4.22;;;3.92;;
69981;SDS011;57319;56.274;43.980;2023-12-04T03:52:03;7.38;;;6.00;;
69981;SDS011;57319;56.274;43.980;2023-12-04T03:54:29;17.00;;;9.45;;
69981;SDS011;57319;56.274;43.980;2023-12-04T03:56:55;11.80;;;7.70;;
69981;SDS011;57319;56.274;43.980;2023-12-04T03:59:20;10.35;;;6.78;;
69981;SDS011;57319;56.274;43.980;2023-12-04T04:01:46;13.18;;;8.23;;
69981;SDS011;57319;56.274;43.980;2023-12-04T04:04:12;15.32;;;7.75;;
69981;SDS011;57319;56.274;43.980;2023-12-04T04:06:37;6.82;;;5.45;;
69981;SDS011;57319;56.274;43.980;2023-12-04T04:09:04;6.45;;;5.22;;
69981;SDS011;57319;56.274;43.980;2023-12-04T04:11:30;4.53;;;4.20;;
69981;SDS011;57319;56.274;43.980;2023-12-04T04:13:56;7.72;;;4.85;;
69981;SDS011;57319;56.274;43.980;2023-12-04T04:16:21;10.40;;;4.05;;
69981;SDS011;57319;56.274;43.980;2023-12-04T04:18:47;4.03;;;3.67;;
69981;SDS011;57319;56.274;43.980;2023-12-04T04:21:13;4.15;;;3.60;;
69981;SDS011;57319;56.274;43.980;2023-12-04T04:23:38;5.32;;;4.30;;
69981;SDS011;57319;56.274;43.980;2023-12-04T04:26:04;3.33;;;3.05;;
69981;SDS011;57319;56.274;43.980;2023-12-04T04:28:30;7.43;;;5.45;;
69981;SDS011;57319;56.274;43.980;2023-12-04T04:30:56;5.57;;;4.60;;
69981;SDS011;57319;56.274;43.980;2023-12-04T04:33:21;5.15;;;4.63;;
69981;SDS011;57319;56.274;43.980;2023-12-04T04:35:47;4.82;;;4.43;;
69981;SDS011;57319;56.274;43.980;2023-12-04T04:38:13;9.40;;;4.80;;
69981;SDS011;57319;56.274;43.980;2023-12-04T04:40:38;5.68;;;4.03;;
69981;SDS011;57319;56.274;43.980;2023-12-04T04:43:09;6.75;;;5.25;;
69981;SDS011;57319;56.274;43.980;2023-12-04T04:45:35;5.78;;;5.18;;
69981;SDS011;57319;56.274;43.980;2023-12-04T04:48:01;4.55;;;4.15;;
69981;SDS011;57319;56.274;43.980;2023-12-04T04:50:27;6.35;;;3.78;;
69981;SDS011;57319;56.274;43.980;2023-12-04T04:52:53;6.55;;;5.03;;
69981;SDS011;57319;56.274;43.980;2023-12-04T04:55:19;6.78;;;5.35;;
69981;SDS011;57319;56.274;43.980;2023-12-04T04:57:44;5.30;;;4.82;;
69981;SDS011;57319;56.274;43.980;2023-12-04T05:00:10;5.60;;;4.63;;
69981;SDS011;57319;56.274;43.980;2023-12-04T05:02:36;5.82;;;3.83;;
69981;SDS011;57319;56.274;43.980;2023-12-04T05:05:02;5.97;;;5.10;;
69981;SDS011;57319;56.274;43.980;2023-12-04T05:07:29;8.85;;;5.25;;
69981;SDS011;57319;56.274;43.980;2023-12-04T05:09:55;13.07;;;5.47;;
69981;SDS011;57319;56.274;43.980;2023-12-04T05:12:21;6.22;;;4.72;;
69981;SDS011;57319;56.274;43.980;2023-12-04T05:14:46;9.15;;;6.72;;
69981;SDS011;57319;56.274;43.980;2023-12-04T05:17:12;12.68;;;7.25;;
69981;SDS011;57319;56.274;43.980;2023-12-04T05:19:37;17.50;;;8.45;;
69981;SDS011;57319;56.274;43.980;2023-12-04T05:22:03;16.75;;;8.70;;
69981;SDS011;57319;56.274;43.980;2023-12-04T05:24:29;16.58;;;8.35;;
69981;SDS011;57319;56.274;43.980;2023-12-04T05:26:54;13.25;;;7.30;;
69981;SDS011;57319;56.274;43.980;2023-12-04T05:29:20;20.58;;;9.65;;
69981;SDS011;57319;56.274;43.980;2023-12-04T05:31:46;11.13;;;6.10;;
69981;SDS011;57319;56.274;43.980;2023-12-04T05:34:12;9.15;;;7.18;;
69981;SDS011;57319;56.274;43.980;2023-12-04T05:36:37;9.73;;;7.25;;
69981;SDS011;57319;56.274;43.980;2023-12-04T05:39:03;15.55;;;7.72;;
69981;SDS011;57319;56.274;43.980;2023-12-04T05:41:29;10.18;;;6.38;;
69981;SDS011;57319;56.274;43.980;2023-12-04T05:43:55;14.93;;;7.97;;
69981;SDS011;57319;56.274;43.980;2023-12-04T05:46:21;5.95;;;5.22;;
69981;SDS011;57319;56.274;43.980;2023-12-04T05:48:47;15.68;;;8.75;;
69981;SDS011;57319;56.274;43.980;2023-12-04T05:51:13;11.43;;;7.53;;
69981;SDS011;57319;56.274;43.980;2023-12-04T05:53:40;13.55;;;8.10;;
69981;SDS011;57319;56.274;43.980;2023-12-04T05:56:06;16.50;;;7.95;;
69981;SDS011;57319;56.274;43.980;2023-12-04T05:58:34;12.43;;;8.60;;
69981;SDS011;57319;56.274;43.980;2023-12-04T06:01:00;15.15;;;9.52;;
69981;SDS011;57319;56.274;43.980;2023-12-04T06:03:26;13.27;;;8.88;;
69981;SDS011;57319;56.274;43.980;2023-12-04T06:05:51;17.15;;;9.13;;
69981;SDS011;57319;56.274;43.980;2023-12-04T06:08:17;20.85;;;11.00;;
69981;SDS011;57319;56.274;43.980;2023-12-04T06:10:43;23.70;;;11.68;;
69981;SDS011;57319;56.274;43.980;2023-12-04T06:13:09;15.68;;;9.00;;
69981;SDS011;57319;56.274;43.980;2023-12-04T06:15:35;22.40;;;11.30;;
69981;SDS011;57319;56.274;43.980;2023-12-04T06:18:00;23.85;;;11.35;;
69981;SDS011;57319;56.274;43.980;2023-12-04T06:20:26;22.70;;;11.75;;
69981;SDS011;57319;56.274;43.980;2023-12-04T06:22:52;21.40;;;12.18;;
69981;SDS011;57319;56.274;43.980;2023-12-04T06:25:18;32.95;;;13.07;;
69981;SDS011;57319;56.274;43.980;2023-12-04T06:27:45;28.42;;;12.43;;
69981;SDS011;57319;56.274;43.980;2023-12-04T06:30:12;18.90;;;10.23;;
69981;SDS011;57319;56.274;43.980;2023-12-04T06:32:38;29.38;;;11.35;;
69981;SDS011;57319;56.274;43.980;2023-12-04T06:35:04;18.80;;;10.98;;
69981;SDS011;57319;56.274;43.980;2023-12-04T06:37:30;21.70;;;11.73;;
69981;SDS011;57319;56.274;43.980;2023-12-04T06:39:57;19.35;;;10.90;;
69981;SDS011;57319;56.274;43.980;2023-12-04T06:42:30;22.25;;;11.02;;
69981;SDS011;57319;56.274;43.980;2023-12-04T06:44:56;20.58;;;10.57;;
69981;SDS011;57319;56.274;43.980;2023-12-04T06:47:22;19.48;;;9.55;;
69981;SDS011;57319;56.274;43.980;2023-12-04T06:49:48;15.20;;;9.52;;
69981;SDS011;57319;56.274;43.980;2023-12-04T06:52:15;15.75;;;8.70;;
69981;SDS011;57319;56.274;43.980;2023-12-04T06:54:40;21.45;;;11.82;;
69981;SDS011;57319;56.274;43.980;2023-12-04T06:57:06;22.70;;;9.18;;
69981;SDS011;57319;56.274;43.980;2023-12-04T06:59:32;18.30;;;10.18;;
69981;SDS011;57319;56.274;43.980;2023-12-04T07:01:57;19.80;;;11.38;;
69981;SDS011;57319;56.274;43.980;2023-12-04T07:04:23;22.10;;;11.48;;
69981;SDS011;57319;56.274;43.980;2023-12-04T07:06:49;20.17;;;10.88;;
69981;SDS011;57319;56.274;43.980;2023-12-04T07:09:14;23.40;;;11.63;;
69981;SDS011;57319;56.274;43.980;2023-12-04T07:11:42;20.25;;;11.45;;
69981;SDS011;57319;56.274;43.980;2023-12-04T07:14:09;23.75;;;10.45;;
69981;SDS011;57319;56.274;43.980;2023-12-04T07:16:38;19.42;;;10.80;;
69981;SDS011;57319;56.274;43.980;2023-12-04T07:19:08;16.58;;;10.10;;
69981;SDS011;57319;56.274;43.980;2023-12-04T07:21:35;12.10;;;8.20;;
69981;SDS011;57319;56.274;43.980;2023-12-04T07:24:01;18.50;;;7.95;;
69981;SDS011;57319;56.274;43.980;2023-12-04T07:26:27;17.55;;;9.20;;
69981;SDS011;57319;56.274;43.980;2023-12-04T07:28:53;16.00;;;8.38;;
69981;SDS011;57319;56.274;43.980;2023-12-04T07:31:19;10.82;;;7.22;;
69981;SDS011;57319;56.274;43.980;2023-12-04T07:33:45;17.40;;;9.05;;
69981;SDS011;57319;56.274;43.980;2023-12-04T07:36:10;12.63;;;7.70;;
69981;SDS011;57319;56.274;43.980;2023-12-04T07:38:36;10.77;;;7.28;;
69981;SDS011;57319;56.274;43.980;2023-12-04T07:41:02;11.80;;;7.47;;
69981;SDS011;57319;56.274;43.980;2023-12-04T07:43:28;8.35;;;6.72;;
69981;SDS011;57319;56.274;43.980;2023-12-04T07:45:57;12.10;;;7.40;;
69981;SDS011;57319;56.274;43.980;2023-12-04T07:48:23;15.35;;;9.18;;
69981;SDS011;57319;56.274;43.980;2023-12-04T07:50:48;16.20;;;8.85;;
69981;SDS011;57319;56.274;43.980;2023-12-04T07:53:14;11.63;;;7.38;;
69981;SDS011;57319;56.274;43.980;2023-12-04T07:55:40;11.60;;;6.93;;
69981;SDS011;57319;56.274;43.980;2023-12-04T07:58:05;14.10;;;8.55;;
69981;SDS011;57319;56.274;43.980;2023-12-04T08:00:31;12.70;;;8.48;;
69981;SDS011;57319;56.274;43.980;2023-12-04T08:02:57;13.82;;;8.77;;
69981;SDS011;57319;56.274;43.980;2023-12-04T08:05:22;8.75;;;5.00;;
69981;SDS011;57319;56.274;43.980;2023-12-04T08:07:48;11.82;;;7.88;;
69981;SDS011;57319;56.274;43.980;2023-12-04T08:10:14;17.55;;;9.32;;
69981;SDS011;57319;56.274;43.980;2023-12-04T08:12:39;14.00;;;8.93;;
69981;SDS011;57319;56.274;43.980;2023-12-04T08:15:05;11.75;;;7.90;;
69981;SDS011;57319;56.274;43.980;2023-12-04T08:17:33;13.27;;;8.45;;
69981;SDS011;57319;56.274;43.980;2023-12-04T08:19:59;17.85;;;10.32;;
69981;SDS011;57319;56.274;43.980;2023-12-04T08:22:25;16.67;;;9.65;;
69981;SDS011;57319;56.274;43.980;2023-12-04T08:24:51;23.77;;;11.13;;
69981;SDS011;57319;56.274;43.980;2023-12-04T08:27:18;18.23;;;9.82;;
69981;SDS011;57319;56.274;43.980;2023-12-04T08:29:44;16.17;;;8.30;;
69981;SDS011;57319;56.274;43.980;2023-12-04T08:32:10;19.75;;;9.85;;
69981;SDS011;57319;56.274;43.980;2023-12-04T08:34:36;10.13;;;7.35;;
69981;SDS011;57319;56.274;43.980;2023-12-04T08:37:01;11.55;;;7.88;;
69981;SDS011;57319;56.274;43.980;2023-12-04T08:39:27;14.88;;;8.13;;
69981;SDS011;57319;56.274;43.980;2023-12-04T08:41:53;13.48;;;7.90;;
69981;SDS011;57319;56.274;43.980;2023-12-04T08:44:18;18.92;;;9.23;;
69981;SDS011;57319;56.274;43.980;2023-12-04T08:46:44;16.35;;;8.90;;
69981;SDS011;57319;56.274;43.980;2023-12-04T08:49:10;19.08;;;9.40;;
69981;SDS011;57319;56.274;43.980;2023-12-04T08:51:36;18.90;;;9.88;;
69981;SDS011;57319;56.274;43.980;2023-12-04T08:54:02;13.98;;;9.00;;
69981;SDS011;57319;56.274;43.980;2023-12-04T08:56:28;14.80;;;9.07;;
69981;SDS011;57319;56.274;43.980;2023-12-04T08:58:54;10.30;;;6.63;;
69981;SDS011;57319;56.274;43.980;2023-12-04T09:01:20;12.48;;;7.15;;
69981;SDS011;57319;56.274;43.980;2023-12-04T09:03:46;14.77;;;8.25;;
69981;SDS011;57319;56.274;43.980;2023-12-04T09:06:11;17.77;;;8.63;;
69981;SDS011;57319;56.274;43.980;2023-12-04T09:08:37;11.90;;;8.20;;
69981;SDS011;57319;56.274;43.980;2023-12-04T09:11:03;14.75;;;9.13;;
69981;SDS011;57319;56.274;43.980;2023-12-04T09:13:28;9.45;;;5.05;;
69981;SDS011;57319;56.274;43.980;2023-12-04T09:15:56;18.27;;;8.55;;
69981;SDS011;57319;56.274;43.980;2023-12-04T09:18:21;19.98;;;9.20;;
69981;SDS011;57319;56.274;43.980;2023-12-04T09:20:47;17.33;;;9.35;;
69981;SDS011;57319;56.274;43.980;2023-12-04T09:23:13;23.95;;;9.43;;
69981;SDS011;57319;56.274;43.980;2023-12-04T09:25:38;20.52;;;9.70;;
69981;SDS011;57319;56.274;43.980;2023-12-04T09:28:04;22.88;;;10.77;;
69981;SDS011;57319;56.274;43.980;2023-12-04T09:30:33;18.42;;;9.25;;
69981;SDS011;57319;56.274;43.980;2023-12-04T09:33:01;11.52;;;7.50;;
69981;SDS011;57319;56.274;43.980;2023-12-04T09:35:26;10.27;;;7.15;;
69981;SDS011;57319;56.274;43.980;2023-12-04T09:37:52;11.90;;;7.00;;
69981;SDS011;57319;56.274;43.980;2023-12-04T09:40:19;17.52;;;8.98;;
69981;SDS011;57319;56.274;43.980;2023-12-04T09:42:45;18.67;;;10.27;;
69981;SDS011;57319;56.274;43.980;2023-12-04T09:45:11;21.02;;;9.70;;
69981;SDS011;57319;56.274;43.980;2023-12-04T09:47:38;21.75;;;9.32;;
69981;SDS011;57319;56.274;43.980;2023-12-04T09:50:04;14.23;;;8.80;;
69981;SDS011;57319;56.274;43.980;2023-12-04T09:52:30;12.43;;;7.80;;
69981;SDS011;57319;56.274;43.980;2023-12-04T09:54:56;18.25;;;8.63;;
69981;SDS011;57319;56.274;43.980;2023-12-04T09:57:23;16.50;;;7.93;;
69981;SDS011;57319;56.274;43.980;2023-12-04T09:59:49;12.18;;;6.00;;
69981;SDS011;57319;56.274;43.980;2023-12-04T10:02:17;19.63;;;8.43;;
69981;SDS011;57319;56.274;43.980;2023-12-04T10:04:43;18.35;;;9.05;;
69981;SDS011;57319;56.274;43.980;2023-12-04T10:07:09;11.38;;;7.53;;
69981;SDS011;57319;56.274;43.980;2023-12-04T10:09:35;15.93;;;8.07;;
69981;SDS011;57319;56.274;43.980;2023-12-04T10:12:01;11.50;;;7.10;;
69981;SDS011;57319;56.274;43.980;2023-12-04T10:14:27;13.02;;;7.65;;
69981;SDS011;57319;56.274;43.980;2023-12-04T10:16:52;16.27;;;8.38;;
69981;SDS011;57319;56.274;43.980;2023-12-04T10:21:52;11.02;;;6.50;;
69981;SDS011;57319;56.274;43.980;2023-12-04T10:26:59;14.48;;;7.38;;
69981;SDS011;57319;56.274;43.980;2023-12-04T10:29:28;15.07;;;8.02;;
69981;SDS011;57319;56.274;43.980;2023-12-04T10:31:56;14.80;;;7.47;;
69981;SDS011;57319;56.274;43.980;2023-12-04T10:34:25;12.02;;;7.20;;
69981;SDS011;57319;56.274;43.980;2023-12-04T10:36:52;16.83;;;8.27;;
69981;SDS011;57319;56.274;43.980;2023-12-04T10:39:18;15.90;;;7.55;;
69981;SDS011;57319;56.274;43.980;2023-12-04T10:41:44;13.40;;;6.75;;
69981;SDS011;57319;56.274;43.980;2023-12-04T10:44:09;8.20;;;5.95;;
69981;SDS011;57319;56.274;43.980;2023-12-04T10:46:40;12.60;;;7.53;;
69981;SDS011;57319;56.274;43.980;2023-12-04T10:49:07;14.88;;;6.68;;
69981;SDS011;57319;56.274;43.980;2023-12-04T10:51:34;14.23;;;7.65;;
69981;SDS011;57319;56.274;43.980;2023-12-04T10:54:00;18.52;;;7.40;;
69981;SDS011;57319;56.274;43.980;2023-12-04T10:56:30;18.35;;;6.72;;
69981;SDS011;57319;56.274;43.980;2023-12-04T10:59:03;12.52;;;6.75;;
69981;SDS011;57319;56.274;43.980;2023-12-04T11:01:37;10.75;;;6.75;;
69981;SDS011;57319;56.274;43.980;2023-12-04T11:04:05;11.00;;;6.75;;
69981;SDS011;57319;56.274;43.980;2023-12-04T11:06:35;10.45;;;6.63;;
69981;SDS011;57319;56.274;43.980;2023-12-04T11:09:05;17.00;;;7.10;;
69981;SDS011;57319;56.274;43.980;2023-12-04T11:11:37;13.63;;;6.85;;
69981;SDS011;57319;56.274;43.980;2023-12-04T11:14:09;8.57;;;5.72;;
69981;SDS011;57319;56.274;43.980;2023-12-04T11:22:12;8.52;;;5.90;;
69981;SDS011;57319;56.274;43.980;2023-12-04T11:24:40;12.68;;;5.28;;
69981;SDS011;57319;56.274;43.980;2023-12-04T11:27:06;7.78;;;4.85;;
69981;SDS011;57319;56.274;43.980;2023-12-04T11:29:32;8.50;;;5.30;;
69981;SDS011;57319;56.274;43.980;2023-12-04T11:31:59;6.75;;;5.05;;
69981;SDS011;57319;56.274;43.980;2023-12-04T11:34:25;9.32;;;5.72;;
69981;SDS011;57319;56.274;43.980;2023-12-04T11:36:51;8.02;;;5.40;;
69981;SDS011;57319;56.274;43.980;2023-12-04T11:39:18;7.90;;;5.20;;
69981;SDS011;57319;56.274;43.980;2023-12-04T11:41:44;5.20;;;4.28;;
69981;SDS011;57319;56.274;43.980;2023-12-04T11:44:13;4.20;;;3.75;;
69981;SDS011;57319;56.274;43.980;2023-12-04T11:46:54;3.17;;;2.92;;
69981;SDS011;57319;56.274;43.980;2023-12-04T11:51:51;3.38;;;2.83;;
69981;SDS011;57319;56.274;43.980;2023-12-04T11:54:18;10.02;;;4.63;;
69981;SDS011;57319;56.274;43.980;2023-12-04T11:56:57;2.72;;;1.80;;
69981;SDS011;57319;56.274;43.980;2023-12-04T11:59:24;6.28;;;4.28;;
69981;SDS011;57319;56.274;43.980;2023-12-04T12:01:50;4.72;;;4.18;;
69981;SDS011;57319;56.274;43.980;2023-12-04T12:04:19;4.13;;;3.67;;
69981;SDS011;57319;56.274;43.980;2023-12-04T12:06:45;6.35;;;5.13;;
69981;SDS011;57319;56.274;43.980;2023-12-04T12:09:11;4.60;;;3.33;;
69981;SDS011;57319;56.274;43.980;2023-12-04T12:11:37;7.63;;;5.05;;
69981;SDS011;57319;56.274;43.980;2023-12-04T12:14:04;5.15;;;4.32;;
69981;SDS011;57319;56.274;43.980;2023-12-04T12:16:33;6.40;;;4.93;;
69981;SDS011;57319;56.274;43.980;2023-12-04T12:19:00;2.85;;;2.58;;
69981;SDS011;57319;56.274;43.980;2023-12-04T12:21:27;13.88;;;4.72;;
69981;SDS011;57319;56.274;43.980;2023-12-04T12:23:54;7.07;;;4.45;;
69981;SDS011;57319;56.274;43.980;2023-12-04T12:26:19;8.20;;;5.22;;
69981;SDS011;57319;56.274;43.980;2023-12-04T12:28:46;2.15;;;1.98;;
69981;SDS011;57319;56.274;43.980;2023-12-04T12:31:12;3.17;;;2.67;;
69981;SDS011;57319;56.274;43.980;2023-12-04T12:33:37;6.47;;;3.05;;
69981;SDS011;57319;56.274;43.980;2023-12-04T12:36:03;4.13;;;3.65;;
69981;SDS011;57319;56.274;43.980;2023-12-04T12:38:30;3.95;;;3.25;;
69981;SDS011;57319;56.274;43.980;2023-12-04T12:41:00;3.83;;;3.50;;
69981;SDS011;57319;56.274;43.980;2023-12-04T12:43:27;7.03;;;4.80;;
69981;SDS011;57319;56.274;43.980;2023-12-04T12:45:53;5.05;;;4.55;;
69981;SDS011;57319;56.274;43.980;2023-12-04T12:48:19;8.32;;;5.30;;
69981;SDS011;57319;56.274;43.980;2023-12-04T12:50:50;6.03;;;3.40;;
69981;SDS011;57319;56.274;43.980;2023-12-04T12:53:17;9.80;;;4.82;;
69981;SDS011;57319;56.274;43.980;2023-12-04T12:55:43;7.63;;;3.42;;
69981;SDS011;57319;56.274;43.980;2023-12-04T12:58:10;6.00;;;3.15;;
69981;SDS011;57319;56.274;43.980;2023-12-04T13:00:39;6.88;;;5.22;;
69981;SDS011;57319;56.274;43.980;2023-12-04T13:03:13;4.95;;;4.55;;
69981;SDS011;57319;56.274;43.980;2023-12-04T13:05:39;8.00;;;4.32;;
69981;SDS011;57319;56.274;43.980;2023-12-04T13:08:05;5.65;;;4.50;;
69981;SDS011;57319;56.274;43.980;2023-12-04T13:10:31;7.80;;;4.68;;
69981;SDS011;57319;56.274;43.980;2023-12-04T13:12:56;7.47;;;4.63;;
69981;SDS011;57319;56.274;43.980;2023-12-04T13:15:25;10.40;;;5.35;;
69981;SDS011;57319;56.274;43.980;2023-12-04T13:17:51;2.97;;;2.72;;
69981;SDS011;57319;56.274;43.980;2023-12-04T13:20:17;5.82;;;4.03;;
69981;SDS011;57319;56.274;43.980;2023-12-04T13:22:43;7.30;;;4.13;;
69981;SDS011;57319;56.274;43.980;2023-12-04T13:25:10;7.07;;;4.60;;
69981;SDS011;57319;56.274;43.980;2023-12-04T13:27:36;5.30;;;4.20;;
69981;SDS011;57319;56.274;43.980;2023-12-04T13:30:06;8.95;;;5.32;;
69981;SDS011;57319;56.274;43.980;2023-12-04T13:32:34;8.18;;;5.60;;
69981;SDS011;57319;56.274;43.980;2023-12-04T13:35:01;8.10;;;5.22;;
69981;SDS011;57319;56.274;43.980;2023-12-04T13:37:32;9.05;;;5.00;;
69981;SDS011;57319;56.274;43.980;2023-12-04T13:40:03;7.55;;;4.85;;
69981;SDS011;57319;56.274;43.980;2023-12-04T13:42:32;7.53;;;5.32;;
69981;SDS011;57319;56.274;43.980;2023-12-04T13:45:16;10.68;;;5.65;;
69981;SDS011;57319;56.274;43.980;2023-12-04T13:47:42;12.75;;;5.88;;
69981;SDS011;57319;56.274;43.980;2023-12-04T13:50:09;7.32;;;5.10;;
69981;SDS011;57319;56.274;43.980;2023-12-04T13:52:35;8.98;;;5.60;;
69981;SDS011;57319;56.274;43.980;2023-12-04T13:55:01;4.97;;;3.83;;
69981;SDS011;57319;56.274;43.980;2023-12-04T13:57:36;8.50;;;4.80;;
69981;SDS011;57319;56.274;43.980;2023-12-04T14:00:10;3.78;;;3.38;;
69981;SDS011;57319;56.274;43.980;2023-12-04T14:02:36;7.03;;;4.50;;
69981;SDS011;57319;56.274;43.980;2023-12-04T14:05:03;4.30;;;3.90;;
69981;SDS011;57319;56.274;43.980;2023-12-04T14:07:29;4.97;;;3.92;;
69981;SDS011;57319;56.274;43.980;2023-12-04T14:09:55;7.20;;;4.43;;
69981;SDS011;57319;56.274;43.980;2023-12-04T14:12:20;7.35;;;3.80;;
69981;SDS011;57319;56.274;43.980;2023-12-04T14:14:46;4.22;;;3.80;;
69981;SDS011;57319;56.274;43.980;2023-12-04T14:17:13;3.42;;;3.03;;
69981;SDS011;57319;56.274;43.980;2023-12-04T14:19:39;4.38;;;4.03;;
69981;SDS011;57319;56.274;43.980;2023-12-04T14:22:05;3.60;;;2.72;;
69981;SDS011;57319;56.274;43.980;2023-12-04T14:24:31;5.13;;;4.45;;
69981;SDS011;57319;56.274;43.980;2023-12-04T14:26:57;5.05;;;3.50;;
69981;SDS011;57319;56.274;43.980;2023-12-04T14:29:22;4.82;;;3.75;;
69981;SDS011;57319;56.274;43.980;2023-12-04T14:31:48;5.15;;;4.15;;
69981;SDS011;57319;56.274;43.980;2023-12-04T14:34:15;2.70;;;2.55;;
69981;SDS011;57319;56.274;43.980;2023-12-04T14:36:41;4.20;;;3.80;;